createdAt,value
2022-08-02T00:03:24.602Z,100741.50
2022-08-02T00:08:26.298Z,100736.06
2022-08-02T00:13:27.824Z,100741.75
2022-08-02T00:18:29.420Z,100741.94
2022-08-02T00:23:30.905Z,100742.53
2022-08-02T00:28:32.421Z,100746.63
2022-08-02T00:34:04.911Z,100751.09
2022-08-02T00:38:55.353Z,100756.34
2022-08-02T00:43:57.292Z,100754.66
2022-08-02T00:48:58.805Z,100761.22
2022-08-02T00:54:00.515Z,100758.53
2022-08-02T00:59:02.499Z,100753.34
2022-08-02T01:04:08.880Z,100746.13
2022-08-02T01:09:10.429Z,100748.84
2022-08-02T01:14:14.459Z,100748.66
2022-08-02T01:19:36.805Z,100748.00
2022-08-02T01:24:55.789Z,100745.81
2022-08-02T01:30:00.685Z,100752.50
2022-08-02T01:35:28.257Z,100760.00
2022-08-02T01:40:34.193Z,100754.63
2022-08-02T01:45:39.587Z,100759.50
2022-08-02T01:50:41.114Z,100760.50
2022-08-02T01:55:57.640Z,100755.97
2022-08-02T02:01:01.596Z,100747.66
2022-08-02T02:06:05.592Z,100749.16
2022-08-02T02:12:05.294Z,100749.47
2022-08-02T02:16:30.027Z,100753.28
2022-08-02T02:21:31.814Z,100756.09
2022-08-02T02:26:35.609Z,100755.47
2022-08-02T02:31:40.417Z,100756.13
2022-08-02T02:36:48.397Z,100749.50
2022-08-02T02:41:53.262Z,100746.75
2022-08-02T02:46:56.242Z,100745.09
2022-08-02T02:51:58.445Z,100744.78
2022-08-02T02:57:01.243Z,100746.63
2022-08-02T03:02:04.739Z,100745.31
2022-08-02T03:07:09.570Z,100741.50
2022-08-02T03:12:11.816Z,100749.53
2022-08-02T03:17:13.567Z,100745.69
2022-08-02T03:22:15.070Z,100744.13
2022-08-02T03:27:16.590Z,100747.63
2022-08-02T03:32:18.145Z,100735.72
2022-08-02T03:37:21.441Z,100743.88
2022-08-02T03:42:23.555Z,100736.38
2022-08-02T03:47:25.773Z,100743.16
2022-08-02T03:52:28.578Z,100731.56
2022-08-02T03:57:30.153Z,100739.13
2022-08-02T04:02:31.681Z,100727.00
2022-08-02T04:08:02.682Z,100740.50
2022-08-02T04:12:55.615Z,100734.72
2022-08-02T04:17:59.854Z,100725.66
2022-08-02T04:23:11.796Z,100740.09
2022-08-02T04:28:18.362Z,100748.66
2022-08-02T04:33:20.141Z,100759.16
2022-08-02T04:38:21.768Z,100763.03
2022-08-02T04:43:24.269Z,100757.44
2022-08-02T04:48:25.835Z,100761.31
2022-08-02T04:53:27.432Z,100764.97
2022-08-02T04:58:44.064Z,100762.28
2022-08-02T05:03:46.831Z,100764.50
2022-08-02T05:08:52.625Z,100763.13
2022-08-02T05:13:58.602Z,100766.66
2022-08-02T05:19:02.266Z,100766.03
2022-08-02T05:24:04.786Z,100772.31
2022-08-02T05:29:06.366Z,100770.06
2022-08-02T05:34:11.873Z,100767.13
2022-08-02T05:39:19.059Z,100765.13
2022-08-02T05:44:21.215Z,100763.72
2022-08-02T05:49:22.763Z,100765.75
2022-08-02T05:54:39.603Z,100775.31
2022-08-02T06:00:07.055Z,100769.47
2022-08-02T06:05:08.502Z,100772.69
2022-08-02T06:10:11.970Z,100767.22
2022-08-02T06:15:15.331Z,100771.66
2022-08-02T06:20:17.632Z,100777.22
2022-08-02T06:25:51.056Z,100772.94
2022-08-02T06:30:41.236Z,100770.81
2022-08-02T06:36:07.201Z,100761.81
2022-08-02T06:41:14.599Z,100750.50
2022-08-02T06:47:08.346Z,100753.03
2022-08-02T06:51:37.706Z,100744.06
2022-08-02T06:56:39.210Z,100738.44
2022-08-02T07:01:40.808Z,100748.44
2022-08-02T07:06:42.576Z,100739.59
2022-08-02T07:11:44.122Z,100733.22
2022-08-02T07:16:45.608Z,100717.38
2022-08-02T07:21:56.537Z,100727.25
2022-08-02T07:27:11.273Z,100719.91
2022-08-02T07:32:18.354Z,100724.22
2022-08-02T07:37:35.823Z,100706.81
2022-08-02T07:42:44.396Z,100701.63
2022-08-02T07:47:46.654Z,100693.66
2022-08-02T07:52:49.198Z,100697.69
2022-08-02T07:57:50.775Z,100691.78
2022-08-02T08:02:56.218Z,100682.47
2022-08-02T08:08:00.180Z,100699.44
2022-08-02T08:13:01.743Z,100697.63
2022-08-02T08:18:03.502Z,100695.44
2022-08-02T08:23:04.975Z,100686.47
2022-08-02T08:28:06.448Z,100684.75
2022-08-02T08:33:08.535Z,100678.72
2022-08-02T08:38:10.153Z,100681.19
2022-08-02T08:43:14.546Z,100669.50
2022-08-02T08:48:30.174Z,100676.81
2022-08-02T08:53:42.081Z,100665.19
2022-08-02T08:58:45.315Z,100661.69
2022-08-02T09:03:46.725Z,100663.09
2022-08-02T09:08:48.285Z,100662.38
2022-08-02T09:13:54.581Z,100664.47
2022-08-02T09:18:56.554Z,100665.28
2022-08-02T09:23:58.026Z,100661.19
2022-08-02T09:29:01.648Z,100657.22
2022-08-02T09:34:03.203Z,100656.94
2022-08-02T09:39:07.284Z,100643.19
2022-08-02T09:44:15.751Z,100634.13
2022-08-02T09:49:19.656Z,100632.94
2022-08-02T09:54:29.276Z,100631.16
2022-08-02T09:59:30.989Z,100633.88
2022-08-02T10:04:34.470Z,100641.66
2022-08-02T10:09:54.783Z,100632.72
2022-08-02T10:14:56.437Z,100626.56
2022-08-02T10:20:02.911Z,100624.06
2022-08-02T10:25:07.655Z,100618.66
2022-08-02T10:30:09.942Z,100603.91
2022-08-02T10:35:19.011Z,100603.34
2022-08-02T10:40:42.937Z,100609.66
2022-08-02T10:45:50.664Z,100589.88
2022-08-02T10:50:53.096Z,100593.91
2022-08-02T10:55:56.632Z,100583.81
2022-08-02T11:01:26.036Z,100590.72
2022-08-02T11:06:27.566Z,100583.59
2022-08-02T11:12:02.287Z,100579.03
2022-08-02T11:17:03.724Z,100576.22
2022-08-02T11:22:06.721Z,100576.63
2022-08-02T11:27:16.673Z,100557.56
2022-08-02T11:32:31.187Z,100551.03
2022-08-02T11:37:39.999Z,100546.06
2022-08-02T11:42:46.679Z,100549.47
2022-08-02T11:47:49.903Z,100544.72
2022-08-02T11:52:52.354Z,100545.06
2022-08-02T11:58:05.853Z,100534.34
2022-08-02T12:03:07.878Z,100531.56
2022-08-02T12:08:09.446Z,100528.72
2022-08-02T12:13:10.961Z,100523.28
2022-08-02T12:18:18.273Z,100514.06
2022-08-02T12:23:19.773Z,100520.66
2022-08-02T12:28:23.925Z,100522.88
2022-08-02T12:33:28.137Z,100505.47
2022-08-02T12:38:29.641Z,100515.09
2022-08-02T12:43:31.126Z,100515.41
2022-08-02T12:48:37.359Z,100514.56
2022-08-02T12:53:39.486Z,100507.81
2022-08-02T12:58:51.293Z,100503.31
2022-08-02T13:04:11.466Z,100493.47
2022-08-02T13:09:16.875Z,100491.31
2022-08-02T13:14:18.694Z,100483.59
2022-08-02T13:19:20.191Z,100480.91
2022-08-02T13:24:39.200Z,100481.00
2022-08-02T13:29:43.694Z,100480.34
2022-08-02T13:34:45.476Z,100470.91
2022-08-02T13:40:05.566Z,100458.72
2022-08-02T13:45:12.849Z,100459.44
2022-08-02T13:50:16.360Z,100459.72
2022-08-02T13:55:17.990Z,100452.84
2022-08-02T14:00:19.462Z,100443.72
2022-08-02T14:05:48.544Z,100435.97
2022-08-02T14:10:51.578Z,100443.41
2022-08-02T14:15:53.166Z,100448.44
2022-08-02T14:20:54.700Z,100438.94
2022-08-02T14:25:57.194Z,100433.75
2022-08-02T14:30:58.638Z,100426.50
2022-08-02T14:36:00.186Z,100436.00
2022-08-02T14:41:01.809Z,100424.28
2022-08-02T14:46:03.412Z,100427.44
2022-08-02T14:51:05.018Z,100423.72
2022-08-02T14:56:06.613Z,100422.50
2022-08-02T15:01:08.106Z,100428.09
2022-08-02T15:06:09.784Z,100425.84
2022-08-02T15:11:11.683Z,100418.66
2022-08-02T15:16:13.120Z,100417.69
2022-08-02T15:21:41.538Z,100414.31
2022-08-02T15:26:36.012Z,100419.38
2022-08-02T15:31:41.474Z,100401.72
2022-08-02T15:36:43.321Z,100398.69
2022-08-02T15:41:44.866Z,100406.69
2022-08-02T15:46:46.353Z,100400.38
2022-08-02T15:51:47.968Z,100403.53
2022-08-02T15:56:49.939Z,100402.84
2022-08-02T16:01:51.427Z,100396.00
2022-08-02T16:06:52.944Z,100390.16
2022-08-02T16:11:54.402Z,100397.59
2022-08-02T16:16:58.511Z,100391.06
2022-08-02T16:22:00.591Z,100395.66
2022-08-02T16:27:02.095Z,100387.34
2022-08-02T16:32:04.694Z,100390.34
2022-08-02T16:37:07.328Z,100384.78
2022-08-02T16:42:08.893Z,100385.28
2022-08-02T16:47:10.343Z,100374.66
2022-08-02T16:52:11.848Z,100376.81
2022-08-02T16:57:14.518Z,100377.25
2022-08-02T17:02:18.473Z,100374.69
2022-08-02T17:08:06.263Z,100367.06
2022-08-02T17:12:42.676Z,100371.28
2022-08-02T17:17:44.611Z,100375.78
2022-08-02T17:22:47.788Z,100379.47
2022-08-02T17:27:55.426Z,100378.44
2022-08-02T17:32:59.195Z,100373.50
2022-08-02T17:38:00.931Z,100380.94
2022-08-02T17:43:02.436Z,100379.28
2022-08-02T17:48:16.324Z,100378.91
2022-08-02T17:53:18.775Z,100383.97
2022-08-02T17:58:20.243Z,100385.75
2022-08-02T18:03:22.249Z,100386.09
2022-08-02T18:08:24.472Z,100390.06
2022-08-02T18:13:25.973Z,100387.63
2022-08-02T18:18:34.446Z,100381.56
2022-08-02T18:23:38.261Z,100390.53
2022-08-02T18:28:45.922Z,100385.81
2022-08-02T18:33:59.971Z,100384.13
2022-08-02T18:39:07.833Z,100387.16
2022-08-02T18:44:10.754Z,100392.09
2022-08-02T18:49:17.464Z,100400.88
2022-08-02T18:54:26.644Z,100400.03
2022-08-02T18:59:37.498Z,100390.66
2022-08-02T19:04:39.244Z,100387.97
2022-08-02T19:09:40.788Z,100391.41
2022-08-02T19:14:42.329Z,100387.03
2022-08-02T19:19:43.888Z,100387.88
2022-08-02T19:24:46.838Z,100393.78
2022-08-02T19:29:50.790Z,100389.63
2022-08-02T19:34:52.540Z,100391.53
2022-08-02T19:39:54.340Z,100405.34
2022-08-02T19:44:55.889Z,100404.06
2022-08-02T19:49:57.732Z,100408.72
2022-08-02T19:55:58.610Z,100406.97
2022-08-02T20:00:21.364Z,100399.34
2022-08-02T20:05:24.052Z,100409.22
2022-08-02T20:10:28.478Z,100422.13
2022-08-02T20:15:55.929Z,100411.91
2022-08-02T20:20:51.626Z,100428.69
2022-08-02T20:25:54.126Z,100427.94
2022-08-02T20:30:56.006Z,100426.88
2022-08-02T20:35:57.460Z,100439.16
2022-08-02T20:40:59.031Z,100431.47
2022-08-02T20:46:00.551Z,100430.88
2022-08-02T20:51:09.546Z,100436.22
2022-08-02T20:56:14.061Z,100444.31
2022-08-02T21:01:15.711Z,100447.59
2022-08-02T21:06:17.239Z,100453.25
2022-08-02T21:11:18.789Z,100459.47
2022-08-02T21:16:23.122Z,100451.81
2022-08-02T21:21:26.579Z,100461.53
2022-08-02T21:26:30.500Z,100459.25
2022-08-02T21:31:36.450Z,100453.88
2022-08-02T21:36:38.220Z,100453.88
2022-08-02T21:41:46.452Z,100462.31
2022-08-02T21:46:51.857Z,100459.00
2022-08-02T21:51:53.485Z,100453.22
2022-08-02T21:56:54.960Z,100460.66
2022-08-02T22:01:57.547Z,100463.72
2022-08-02T22:06:59.445Z,100470.94
2022-08-02T22:12:00.993Z,100474.25
2022-08-02T22:17:08.528Z,100482.84
2022-08-02T22:22:10.418Z,100482.69
2022-08-02T22:27:11.876Z,100483.94
2022-08-02T22:32:21.071Z,100491.41
2022-08-02T22:38:16.135Z,100490.34
2022-08-02T22:42:45.003Z,100488.28
2022-08-02T22:47:51.212Z,100492.66
2022-08-02T22:52:52.864Z,100496.84
2022-08-02T22:57:57.097Z,100491.97
2022-08-02T23:02:58.768Z,100497.50
2022-08-02T23:08:00.450Z,100495.72
2022-08-02T23:13:01.922Z,100504.69
2022-08-02T23:18:03.433Z,100499.03
2022-08-02T23:23:11.762Z,100503.25
2022-08-02T23:28:13.357Z,100497.34
2022-08-02T23:33:14.816Z,100508.44
2022-08-02T23:38:16.335Z,100503.72
2022-08-02T23:43:17.933Z,100500.09
2022-08-02T23:48:19.412Z,100509.13
2022-08-02T23:53:20.893Z,100503.84
2022-08-02T23:58:22.366Z,100500.38
